sensor_id;sensor_type;location;lat;lon;timestamp;P1;durP1;ratioP1;P2;durP2;ratioP2
48588;SDS011;34369;51.174;6.738;2023-03-20T00:02:22;38.47;;;35.67;;
48588;SDS011;34369;51.174;6.738;2023-03-20T00:04:54;38.30;;;35.50;;
48588;SDS011;34369;51.174;6.738;2023-03-20T00:07:27;38.27;;;35.57;;
48588;SDS011;34369;51.174;6.738;2023-03-20T00:10:01;37.20;;;34.50;;
48588;SDS011;34369;51.174;6.738;2023-03-20T00:12:35;38.03;;;35.33;;
48588;SDS011;34369;51.174;6.738;2023-03-20T00:15:14;37.67;;;35.07;;
48588;SDS011;34369;51.174;6.738;2023-03-20T00:17:55;38.42;;;35.65;;
48588;SDS011;34369;51.174;6.738;2023-03-20T00:20:31;38.35;;;35.63;;
48588;SDS011;34369;51.174;6.738;2023-03-20T00:23:05;39.40;;;36.70;;
48588;SDS011;34369;51.174;6.738;2023-03-20T00:25:39;38.17;;;35.40;;
48588;SDS011;34369;51.174;6.738;2023-03-20T00:31:19;39.47;;;36.67;;
48588;SDS011;34369;51.174;6.738;2023-03-20T00:33:56;38.27;;;35.57;;
48588;SDS011;34369;51.174;6.738;2023-03-20T00:36:32;37.93;;;35.27;;
48588;SDS011;34369;51.174;6.738;2023-03-20T00:39:05;38.33;;;35.63;;
48588;SDS011;34369;51.174;6.738;2023-03-20T00:41:40;39.30;;;36.60;;
48588;SDS011;34369;51.174;6.738;2023-03-20T00:44:17;37.17;;;34.57;;
48588;SDS011;34369;51.174;6.738;2023-03-20T00:46:54;37.17;;;34.57;;
48588;SDS011;34369;51.174;6.738;2023-03-20T00:49:30;37.37;;;34.77;;
48588;SDS011;34369;51.174;6.738;2023-03-20T00:52:04;37.57;;;34.90;;
48588;SDS011;34369;51.174;6.738;2023-03-20T00:54:38;38.00;;;35.27;;
48588;SDS011;34369;51.174;6.738;2023-03-20T00:57:12;38.20;;;35.50;;
48588;SDS011;34369;51.174;6.738;2023-03-20T00:59:50;38.17;;;35.57;;
48588;SDS011;34369;51.174;6.738;2023-03-20T01:02:29;38.37;;;35.67;;
48588;SDS011;34369;51.174;6.738;2023-03-20T01:05:01;37.97;;;35.30;;
48588;SDS011;34369;51.174;6.738;2023-03-20T01:07:35;37.40;;;34.90;;
48588;SDS011;34369;51.174;6.738;2023-03-20T01:10:09;39.10;;;36.37;;
48588;SDS011;34369;51.174;6.738;2023-03-20T01:12:44;38.33;;;35.53;;
48588;SDS011;34369;51.174;6.738;2023-03-20T01:15:19;37.63;;;35.00;;
48588;SDS011;34369;51.174;6.738;2023-03-20T01:17:54;38.47;;;35.77;;
48588;SDS011;34369;51.174;6.738;2023-03-20T01:20:28;38.87;;;36.17;;
48588;SDS011;34369;51.174;6.738;2023-03-20T01:23:01;38.00;;;35.30;;
48588;SDS011;34369;51.174;6.738;2023-03-20T01:25:33;38.37;;;35.77;;
48588;SDS011;34369;51.174;6.738;2023-03-20T01:28:13;38.27;;;35.60;;
48588;SDS011;34369;51.174;6.738;2023-03-20T01:30:48;39.53;;;36.80;;
48588;SDS011;34369;51.174;6.738;2023-03-20T01:33:22;37.60;;;35.00;;
48588;SDS011;34369;51.174;6.738;2023-03-20T01:35:58;38.97;;;36.27;;
48588;SDS011;34369;51.174;6.738;2023-03-20T01:38:30;37.97;;;35.20;;
48588;SDS011;34369;51.174;6.738;2023-03-20T01:41:03;37.80;;;35.00;;
48588;SDS011;34369;51.174;6.738;2023-03-20T01:43:41;38.45;;;35.65;;
48588;SDS011;34369;51.174;6.738;2023-03-20T01:46:15;38.93;;;36.23;;
48588;SDS011;34369;51.174;6.738;2023-03-20T01:48:55;36.87;;;34.23;;
48588;SDS011;34369;51.174;6.738;2023-03-20T01:51:38;37.17;;;34.47;;
48588;SDS011;34369;51.174;6.738;2023-03-20T01:54:12;38.93;;;36.13;;
48588;SDS011;34369;51.174;6.738;2023-03-20T01:56:50;38.17;;;35.50;;
48588;SDS011;34369;51.174;6.738;2023-03-20T01:59:30;36.00;;;33.37;;
48588;SDS011;34369;51.174;6.738;2023-03-20T02:02:06;38.80;;;36.10;;
48588;SDS011;34369;51.174;6.738;2023-03-20T02:04:41;38.20;;;35.50;;
48588;SDS011;34369;51.174;6.738;2023-03-20T02:07:17;39.05;;;36.20;;
48588;SDS011;34369;51.174;6.738;2023-03-20T02:09:52;37.63;;;35.03;;
48588;SDS011;34369;51.174;6.738;2023-03-20T02:12:30;38.40;;;35.73;;
48588;SDS011;34369;51.174;6.738;2023-03-20T02:15:06;37.80;;;35.10;;
48588;SDS011;34369;51.174;6.738;2023-03-20T02:17:39;38.47;;;35.63;;
48588;SDS011;34369;51.174;6.738;2023-03-20T02:20:15;39.10;;;36.37;;
48588;SDS011;34369;51.174;6.738;2023-03-20T02:23:12;40.00;;;37.27;;
48588;SDS011;34369;51.174;6.738;2023-03-20T02:26:24;40.53;;;37.63;;
48588;SDS011;34369;51.174;6.738;2023-03-20T02:32:47;38.63;;;35.93;;
48588;SDS011;34369;51.174;6.738;2023-03-20T02:36:14;36.43;;;33.90;;
48588;SDS011;34369;51.174;6.738;2023-03-20T02:39:20;41.37;;;38.40;;
48588;SDS011;34369;51.174;6.738;2023-03-20T02:42:15;40.67;;;37.87;;
48588;SDS011;34369;51.174;6.738;2023-03-20T02:45:01;37.77;;;35.17;;
48588;SDS011;34369;51.174;6.738;2023-03-20T02:47:45;39.60;;;36.77;;
48588;SDS011;34369;51.174;6.738;2023-03-20T02:50:25;38.73;;;35.83;;
48588;SDS011;34369;51.174;6.738;2023-03-20T02:53:07;40.33;;;37.53;;
48588;SDS011;34369;51.174;6.738;2023-03-20T02:55:53;38.60;;;36.00;;
48588;SDS011;34369;51.174;6.738;2023-03-20T02:58:33;39.50;;;36.63;;
48588;SDS011;34369;51.174;6.738;2023-03-20T03:01:16;39.67;;;36.87;;
48588;SDS011;34369;51.174;6.738;2023-03-20T03:03:55;40.73;;;37.83;;
48588;SDS011;34369;51.174;6.738;2023-03-20T03:06:31;39.75;;;36.95;;
48588;SDS011;34369;51.174;6.738;2023-03-20T03:09:10;39.37;;;36.53;;
48588;SDS011;34369;51.174;6.738;2023-03-20T03:11:49;40.27;;;37.37;;
48588;SDS011;34369;51.174;6.738;2023-03-20T03:14:27;40.63;;;37.53;;
48588;SDS011;34369;51.174;6.738;2023-03-20T03:17:05;39.67;;;36.70;;
48588;SDS011;34369;51.174;6.738;2023-03-20T03:19:41;41.13;;;38.13;;
48588;SDS011;34369;51.174;6.738;2023-03-20T03:22:18;41.13;;;38.13;;
48588;SDS011;34369;51.174;6.738;2023-03-20T03:24:51;41.43;;;38.43;;
48588;SDS011;34369;51.174;6.738;2023-03-20T03:27:30;41.60;;;38.50;;
48588;SDS011;34369;51.174;6.738;2023-03-20T03:30:09;40.43;;;37.50;;
48588;SDS011;34369;51.174;6.738;2023-03-20T03:32:48;41.67;;;38.67;;
48588;SDS011;34369;51.174;6.738;2023-03-20T03:35:33;41.83;;;38.87;;
48588;SDS011;34369;51.174;6.738;2023-03-20T03:38:09;40.80;;;37.80;;
48588;SDS011;34369;51.174;6.738;2023-03-20T03:40:58;38.57;;;35.80;;
48588;SDS011;34369;51.174;6.738;2023-03-20T03:43:48;40.17;;;37.37;;
48588;SDS011;34369;51.174;6.738;2023-03-20T03:46:29;42.90;;;39.93;;
48588;SDS011;34369;51.174;6.738;2023-03-20T03:49:13;39.27;;;36.47;;
48588;SDS011;34369;51.174;6.738;2023-03-20T03:51:49;41.90;;;38.97;;
48588;SDS011;34369;51.174;6.738;2023-03-20T03:54:27;39.73;;;36.87;;
48588;SDS011;34369;51.174;6.738;2023-03-20T03:57:05;40.03;;;37.23;;
48588;SDS011;34369;51.174;6.738;2023-03-20T03:59:42;41.37;;;38.47;;
48588;SDS011;34369;51.174;6.738;2023-03-20T04:02:18;41.30;;;38.27;;
48588;SDS011;34369;51.174;6.738;2023-03-20T04:04:53;43.73;;;40.43;;
48588;SDS011;34369;51.174;6.738;2023-03-20T04:07:26;41.33;;;38.43;;
48588;SDS011;34369;51.174;6.738;2023-03-20T04:09:59;41.70;;;38.30;;
48588;SDS011;34369;51.174;6.738;2023-03-20T04:12:33;42.03;;;38.87;;
48588;SDS011;34369;51.174;6.738;2023-03-20T04:15:09;42.07;;;38.83;;
48588;SDS011;34369;51.174;6.738;2023-03-20T04:17:43;41.67;;;38.47;;
48588;SDS011;34369;51.174;6.738;2023-03-20T04:20:15;39.80;;;36.83;;
48588;SDS011;34369;51.174;6.738;2023-03-20T04:22:48;41.80;;;38.73;;
48588;SDS011;34369;51.174;6.738;2023-03-20T04:25:21;42.10;;;38.90;;
48588;SDS011;34369;51.174;6.738;2023-03-20T04:27:56;41.27;;;37.87;;
48588;SDS011;34369;51.174;6.738;2023-03-20T04:30:30;42.40;;;39.33;;
48588;SDS011;34369;51.174;6.738;2023-03-20T04:33:06;42.00;;;38.97;;
48588;SDS011;34369;51.174;6.738;2023-03-20T04:35:41;40.67;;;37.63;;
48588;SDS011;34369;51.174;6.738;2023-03-20T04:38:14;40.33;;;37.37;;
48588;SDS011;34369;51.174;6.738;2023-03-20T04:40:47;41.77;;;38.73;;
48588;SDS011;34369;51.174;6.738;2023-03-20T04:43:20;39.20;;;36.40;;
48588;SDS011;34369;51.174;6.738;2023-03-20T04:45:54;42.97;;;39.97;;
48588;SDS011;34369;51.174;6.738;2023-03-20T04:48:26;41.73;;;38.70;;
48588;SDS011;34369;51.174;6.738;2023-03-20T04:50:58;40.00;;;37.20;;
48588;SDS011;34369;51.174;6.738;2023-03-20T04:53:30;40.67;;;37.87;;
48588;SDS011;34369;51.174;6.738;2023-03-20T04:56:06;41.07;;;38.07;;
48588;SDS011;34369;51.174;6.738;2023-03-20T04:58:40;42.30;;;39.30;;
48588;SDS011;34369;51.174;6.738;2023-03-20T05:01:14;40.40;;;37.47;;
48588;SDS011;34369;51.174;6.738;2023-03-20T05:03:46;40.73;;;37.93;;
48588;SDS011;34369;51.174;6.738;2023-03-20T05:06:18;37.93;;;35.27;;
48588;SDS011;34369;51.174;6.738;2023-03-20T05:08:53;38.73;;;35.97;;
48588;SDS011;34369;51.174;6.738;2023-03-20T05:11:28;39.60;;;36.80;;
48588;SDS011;34369;51.174;6.738;2023-03-20T05:14:01;40.73;;;37.83;;
48588;SDS011;34369;51.174;6.738;2023-03-20T05:16:36;41.23;;;38.33;;
48588;SDS011;34369;51.174;6.738;2023-03-20T05:19:08;39.33;;;36.50;;
48588;SDS011;34369;51.174;6.738;2023-03-20T05:21:41;41.90;;;38.93;;
48588;SDS011;34369;51.174;6.738;2023-03-20T05:24:14;40.90;;;38.00;;
48588;SDS011;34369;51.174;6.738;2023-03-20T05:26:46;41.33;;;38.33;;
48588;SDS011;34369;51.174;6.738;2023-03-20T05:29:20;42.17;;;39.07;;
48588;SDS011;34369;51.174;6.738;2023-03-20T05:31:55;42.17;;;39.10;;
48588;SDS011;34369;51.174;6.738;2023-03-20T05:34:28;42.80;;;39.70;;
48588;SDS011;34369;51.174;6.738;2023-03-20T05:37:02;43.33;;;40.13;;
48588;SDS011;34369;51.174;6.738;2023-03-20T05:39:35;42.37;;;39.17;;
48588;SDS011;34369;51.174;6.738;2023-03-20T05:42:09;43.97;;;40.57;;
48588;SDS011;34369;51.174;6.738;2023-03-20T05:44:42;43.53;;;40.33;;
48588;SDS011;34369;51.174;6.738;2023-03-20T05:47:16;44.07;;;40.80;;
48588;SDS011;34369;51.174;6.738;2023-03-20T05:50:07;43.07;;;39.77;;
48588;SDS011;34369;51.174;6.738;2023-03-20T05:52:45;43.33;;;40.17;;
48588;SDS011;34369;51.174;6.738;2023-03-20T05:55:18;42.42;;;39.25;;
48588;SDS011;34369;51.174;6.738;2023-03-20T05:57:51;42.70;;;39.43;;
48588;SDS011;34369;51.174;6.738;2023-03-20T06:00:24;44.07;;;40.77;;
48588;SDS011;34369;51.174;6.738;2023-03-20T06:02:58;43.57;;;39.90;;
48588;SDS011;34369;51.174;6.738;2023-03-20T06:05:31;41.73;;;38.70;;
48588;SDS011;34369;51.174;6.738;2023-03-20T06:08:05;42.27;;;38.97;;
48588;SDS011;34369;51.174;6.738;2023-03-20T06:10:39;42.33;;;39.03;;
48588;SDS011;34369;51.174;6.738;2023-03-20T06:13:13;43.83;;;40.53;;
48588;SDS011;34369;51.174;6.738;2023-03-20T06:15:45;42.50;;;39.40;;
48588;SDS011;34369;51.174;6.738;2023-03-20T06:22:04;41.40;;;38.33;;
48588;SDS011;34369;51.174;6.738;2023-03-20T06:24:40;42.58;;;39.38;;
48588;SDS011;34369;51.174;6.738;2023-03-20T06:27:13;42.93;;;39.63;;
48588;SDS011;34369;51.174;6.738;2023-03-20T06:29:48;42.57;;;39.13;;
48588;SDS011;34369;51.174;6.738;2023-03-20T06:32:21;40.90;;;37.67;;
48588;SDS011;34369;51.174;6.738;2023-03-20T06:34:57;42.97;;;39.77;;
48588;SDS011;34369;51.174;6.738;2023-03-20T06:37:29;42.27;;;39.10;;
48588;SDS011;34369;51.174;6.738;2023-03-20T06:40:06;41.55;;;38.45;;
48588;SDS011;34369;51.174;6.738;2023-03-20T06:42:41;41.88;;;38.72;;
48588;SDS011;34369;51.174;6.738;2023-03-20T06:45:14;39.07;;;35.97;;
48588;SDS011;34369;51.174;6.738;2023-03-20T06:47:50;38.85;;;35.65;;
48588;SDS011;34369;51.174;6.738;2023-03-20T06:50:24;39.60;;;36.77;;
48588;SDS011;34369;51.174;6.738;2023-03-20T06:52:57;40.77;;;37.90;;
48588;SDS011;34369;51.174;6.738;2023-03-20T06:55:36;40.00;;;37.20;;
48588;SDS011;34369;51.174;6.738;2023-03-20T06:58:09;39.37;;;36.57;;
48588;SDS011;34369;51.174;6.738;2023-03-20T07:00:42;39.20;;;36.40;;
48588;SDS011;34369;51.174;6.738;2023-03-20T07:03:16;40.10;;;37.27;;
48588;SDS011;34369;51.174;6.738;2023-03-20T07:05:50;39.53;;;36.50;;
48588;SDS011;34369;51.174;6.738;2023-03-20T07:08:23;38.60;;;35.63;;
48588;SDS011;34369;51.174;6.738;2023-03-20T07:10:56;39.33;;;36.50;;
48588;SDS011;34369;51.174;6.738;2023-03-20T07:13:29;38.03;;;35.23;;
48588;SDS011;34369;51.174;6.738;2023-03-20T07:16:03;37.00;;;34.33;;
48588;SDS011;34369;51.174;6.738;2023-03-20T07:18:40;37.57;;;34.90;;
48588;SDS011;34369;51.174;6.738;2023-03-20T07:21:17;37.20;;;34.53;;
48588;SDS011;34369;51.174;6.738;2023-03-20T07:23:52;38.17;;;35.40;;
48588;SDS011;34369;51.174;6.738;2023-03-20T07:26:25;37.83;;;35.23;;
48588;SDS011;34369;51.174;6.738;2023-03-20T07:29:00;38.43;;;35.37;;
48588;SDS011;34369;51.174;6.738;2023-03-20T07:31:33;37.93;;;35.33;;
48588;SDS011;34369;51.174;6.738;2023-03-20T07:34:06;36.60;;;34.10;;
48588;SDS011;34369;51.174;6.738;2023-03-20T07:36:40;38.73;;;35.83;;
48588;SDS011;34369;51.174;6.738;2023-03-20T07:39:13;35.77;;;33.27;;
48588;SDS011;34369;51.174;6.738;2023-03-20T07:41:46;37.13;;;34.47;;
48588;SDS011;34369;51.174;6.738;2023-03-20T07:44:19;37.80;;;35.00;;
48588;SDS011;34369;51.174;6.738;2023-03-20T07:46:52;36.73;;;34.13;;
48588;SDS011;34369;51.174;6.738;2023-03-20T07:49:25;36.03;;;33.53;;
48588;SDS011;34369;51.174;6.738;2023-03-20T07:52:00;36.30;;;33.70;;
48588;SDS011;34369;51.174;6.738;2023-03-20T07:54:33;35.43;;;33.03;;
48588;SDS011;34369;51.174;6.738;2023-03-20T07:57:05;37.50;;;34.80;;
48588;SDS011;34369;51.174;6.738;2023-03-20T07:59:39;36.23;;;33.63;;
48588;SDS011;34369;51.174;6.738;2023-03-20T08:02:12;36.50;;;33.90;;
48588;SDS011;34369;51.174;6.738;2023-03-20T08:04:46;37.57;;;34.70;;
48588;SDS011;34369;51.174;6.738;2023-03-20T08:07:20;37.43;;;34.87;;
48588;SDS011;34369;51.174;6.738;2023-03-20T08:09:54;38.38;;;35.67;;
48588;SDS011;34369;51.174;6.738;2023-03-20T08:12:29;37.43;;;34.83;;
48588;SDS011;34369;51.174;6.738;2023-03-20T08:15:01;36.70;;;34.10;;
48588;SDS011;34369;51.174;6.738;2023-03-20T08:17:35;36.70;;;34.10;;
48588;SDS011;34369;51.174;6.738;2023-03-20T08:20:09;37.20;;;34.50;;
48588;SDS011;34369;51.174;6.738;2023-03-20T08:22:45;36.90;;;34.20;;
48588;SDS011;34369;51.174;6.738;2023-03-20T08:25:19;36.07;;;33.47;;
48588;SDS011;34369;51.174;6.738;2023-03-20T08:27:51;36.93;;;34.33;;
48588;SDS011;34369;51.174;6.738;2023-03-20T08:30:24;37.20;;;34.50;;
48588;SDS011;34369;51.174;6.738;2023-03-20T08:32:57;35.60;;;33.00;;
48588;SDS011;34369;51.174;6.738;2023-03-20T08:35:29;38.37;;;35.77;;
48588;SDS011;34369;51.174;6.738;2023-03-20T08:38:03;36.47;;;33.87;;
48588;SDS011;34369;51.174;6.738;2023-03-20T08:40:36;36.47;;;33.93;;
48588;SDS011;34369;51.174;6.738;2023-03-20T08:43:11;35.08;;;32.63;;
48588;SDS011;34369;51.174;6.738;2023-03-20T08:45:50;34.63;;;32.13;;
48588;SDS011;34369;51.174;6.738;2023-03-20T08:48:23;34.78;;;32.28;;
48588;SDS011;34369;51.174;6.738;2023-03-20T08:50:56;35.90;;;33.37;;
48588;SDS011;34369;51.174;6.738;2023-03-20T08:53:32;34.80;;;32.40;;
48588;SDS011;34369;51.174;6.738;2023-03-20T08:56:05;35.97;;;33.57;;
48588;SDS011;34369;51.174;6.738;2023-03-20T08:58:41;35.83;;;33.33;;
48588;SDS011;34369;51.174;6.738;2023-03-20T09:01:14;34.90;;;32.43;;
48588;SDS011;34369;51.174;6.738;2023-03-20T09:03:46;35.63;;;33.13;;
48588;SDS011;34369;51.174;6.738;2023-03-20T09:06:21;35.63;;;33.07;;
48588;SDS011;34369;51.174;6.738;2023-03-20T09:08:56;34.63;;;32.23;;
48588;SDS011;34369;51.174;6.738;2023-03-20T09:11:30;35.53;;;32.93;;
48588;SDS011;34369;51.174;6.738;2023-03-20T09:14:03;35.97;;;33.47;;
48588;SDS011;34369;51.174;6.738;2023-03-20T09:16:36;34.73;;;32.37;;
48588;SDS011;34369;51.174;6.738;2023-03-20T09:19:09;35.10;;;32.60;;
48588;SDS011;34369;51.174;6.738;2023-03-20T09:21:55;35.07;;;32.33;;
48588;SDS011;34369;51.174;6.738;2023-03-20T09:24:46;34.65;;;32.17;;
48588;SDS011;34369;51.174;6.738;2023-03-20T09:27:19;33.75;;;31.40;;
48588;SDS011;34369;51.174;6.738;2023-03-20T09:29:52;34.87;;;32.37;;
48588;SDS011;34369;51.174;6.738;2023-03-20T09:32:26;34.80;;;32.10;;
48588;SDS011;34369;51.174;6.738;2023-03-20T09:34:59;34.30;;;31.90;;
48588;SDS011;34369;51.174;6.738;2023-03-20T09:37:32;34.60;;;32.08;;
48588;SDS011;34369;51.174;6.738;2023-03-20T09:40:09;33.30;;;30.75;;
48588;SDS011;34369;51.174;6.738;2023-03-20T09:42:58;33.75;;;31.25;;
48588;SDS011;34369;51.174;6.738;2023-03-20T09:45:43;32.30;;;29.88;;
48588;SDS011;34369;51.174;6.738;2023-03-20T09:48:26;32.53;;;30.27;;
48588;SDS011;34369;51.174;6.738;2023-03-20T09:51:12;32.20;;;29.98;;
48588;SDS011;34369;51.174;6.738;2023-03-20T09:53:55;32.67;;;30.48;;
48588;SDS011;34369;51.174;6.738;2023-03-20T09:56:41;32.27;;;30.00;;
48588;SDS011;34369;51.174;6.738;2023-03-20T10:01:50;31.48;;;29.35;;
48588;SDS011;34369;51.174;6.738;2023-03-20T10:04:26;32.55;;;30.25;;
48588;SDS011;34369;51.174;6.738;2023-03-20T10:07:02;33.80;;;31.37;;
48588;SDS011;34369;51.174;6.738;2023-03-20T10:09:37;32.70;;;30.20;;
48588;SDS011;34369;51.174;6.738;2023-03-20T10:12:19;33.22;;;31.00;;
48588;SDS011;34369;51.174;6.738;2023-03-20T10:15:06;33.30;;;31.00;;
48588;SDS011;34369;51.174;6.738;2023-03-20T10:17:50;34.07;;;31.67;;
48588;SDS011;34369;51.174;6.738;2023-03-20T10:20:41;33.10;;;30.90;;
48588;SDS011;34369;51.174;6.738;2023-03-20T10:23:29;32.77;;;30.50;;
48588;SDS011;34369;51.174;6.738;2023-03-20T10:26:08;34.10;;;31.90;;
48588;SDS011;34369;51.174;6.738;2023-03-20T10:28:45;32.88;;;30.55;;
48588;SDS011;34369;51.174;6.738;2023-03-20T10:31:31;33.47;;;31.17;;
48588;SDS011;34369;51.174;6.738;2023-03-20T10:34:23;32.27;;;29.97;;
48588;SDS011;34369;51.174;6.738;2023-03-20T10:37:15;33.93;;;31.63;;
48588;SDS011;34369;51.174;6.738;2023-03-20T10:40:11;33.07;;;30.57;;
48588;SDS011;34369;51.174;6.738;2023-03-20T10:42:57;34.03;;;31.73;;
48588;SDS011;34369;51.174;6.738;2023-03-20T10:45:37;33.57;;;31.30;;
48588;SDS011;34369;51.174;6.738;2023-03-20T10:48:16;34.67;;;32.27;;
48588;SDS011;34369;51.174;6.738;2023-03-20T10:50:57;33.90;;;31.50;;
48588;SDS011;34369;51.174;6.738;2023-03-20T10:53:36;34.20;;;31.70;;
48588;SDS011;34369;51.174;6.738;2023-03-20T10:56:19;32.93;;;30.73;;
48588;SDS011;34369;51.174;6.738;2023-03-20T10:59:02;33.47;;;31.07;;
48588;SDS011;34369;51.174;6.738;2023-03-20T11:01:41;33.27;;;30.90;;
48588;SDS011;34369;51.174;6.738;2023-03-20T11:04:15;33.90;;;31.60;;
48588;SDS011;34369;51.174;6.738;2023-03-20T11:06:50;33.67;;;31.27;;
48588;SDS011;34369;51.174;6.738;2023-03-20T11:09:38;35.23;;;32.93;;
48588;SDS011;34369;51.174;6.738;2023-03-20T11:12:23;32.73;;;30.33;;
48588;SDS011;34369;51.174;6.738;2023-03-20T11:15:20;33.57;;;31.13;;
48588;SDS011;34369;51.174;6.738;2023-03-20T11:18:00;33.70;;;31.20;;
48588;SDS011;34369;51.174;6.738;2023-03-20T11:20:38;34.80;;;32.13;;
48588;SDS011;34369;51.174;6.738;2023-03-20T11:23:18;35.93;;;33.00;;
48588;SDS011;34369;51.174;6.738;2023-03-20T11:25:57;37.13;;;33.87;;
48588;SDS011;34369;51.174;6.738;2023-03-20T11:28:37;33.73;;;31.23;;
48588;SDS011;34369;51.174;6.738;2023-03-20T11:31:17;34.27;;;31.77;;
48588;SDS011;34369;51.174;6.738;2023-03-20T11:34:06;35.00;;;32.40;;
48588;SDS011;34369;51.174;6.738;2023-03-20T11:36:54;33.53;;;31.33;;
48588;SDS011;34369;51.174;6.738;2023-03-20T11:39:29;32.80;;;30.60;;
48588;SDS011;34369;51.174;6.738;2023-03-20T11:42:20;34.37;;;32.07;;
48588;SDS011;34369;51.174;6.738;2023-03-20T11:44:58;33.33;;;30.87;;
48588;SDS011;34369;51.174;6.738;2023-03-20T11:47:34;32.10;;;29.77;;
48588;SDS011;34369;51.174;6.738;2023-03-20T11:50:23;32.60;;;30.33;;
48588;SDS011;34369;51.174;6.738;2023-03-20T11:53:03;32.30;;;30.10;;
48588;SDS011;34369;51.174;6.738;2023-03-20T11:56:00;32.40;;;30.00;;
48588;SDS011;34369;51.174;6.738;2023-03-20T11:58:38;32.73;;;30.50;;
48588;SDS011;34369;51.174;6.738;2023-03-20T12:01:25;32.37;;;30.17;;
48588;SDS011;34369;51.174;6.738;2023-03-20T12:04:03;32.45;;;30.08;;
48588;SDS011;34369;51.174;6.738;2023-03-20T12:06:45;33.28;;;31.08;;
48588;SDS011;34369;51.174;6.738;2023-03-20T12:09:28;31.90;;;29.80;;
48588;SDS011;34369;51.174;6.738;2023-03-20T12:12:18;33.43;;;31.13;;
48588;SDS011;34369;51.174;6.738;2023-03-20T12:15:09;33.47;;;31.20;;
48588;SDS011;34369;51.174;6.738;2023-03-20T12:17:51;31.33;;;29.17;;
48588;SDS011;34369;51.174;6.738;2023-03-20T12:20:30;32.93;;;30.60;;
48588;SDS011;34369;51.174;6.738;2023-03-20T12:23:13;33.00;;;30.70;;
48588;SDS011;34369;51.174;6.738;2023-03-20T12:25:56;31.92;;;29.83;;
48588;SDS011;34369;51.174;6.738;2023-03-20T12:28:41;32.13;;;29.85;;
48588;SDS011;34369;51.174;6.738;2023-03-20T12:31:20;33.13;;;30.60;;
48588;SDS011;34369;51.174;6.738;2023-03-20T12:33:57;32.90;;;30.50;;
48588;SDS011;34369;51.174;6.738;2023-03-20T12:36:41;33.77;;;31.37;;
48588;SDS011;34369;51.174;6.738;2023-03-20T12:39:20;32.88;;;30.48;;
48588;SDS011;34369;51.174;6.738;2023-03-20T12:42:01;32.03;;;29.93;;
48588;SDS011;34369;51.174;6.738;2023-03-20T12:44:46;32.60;;;30.37;;
48588;SDS011;34369;51.174;6.738;2023-03-20T12:47:28;31.85;;;29.60;;
48588;SDS011;34369;51.174;6.738;2023-03-20T12:50:20;32.33;;;29.93;;
48588;SDS011;34369;51.174;6.738;2023-03-20T12:53:36;32.72;;;30.40;;
48588;SDS011;34369;51.174;6.738;2023-03-20T12:57:09;31.30;;;29.20;;
48588;SDS011;34369;51.174;6.738;2023-03-20T13:00:02;33.00;;;30.83;;
48588;SDS011;34369;51.174;6.738;2023-03-20T13:02:57;32.53;;;30.30;;
48588;SDS011;34369;51.174;6.738;2023-03-20T13:06:00;33.20;;;30.90;;
48588;SDS011;34369;51.174;6.738;2023-03-20T13:12:38;32.97;;;30.67;;
48588;SDS011;34369;51.174;6.738;2023-03-20T13:15:25;33.00;;;30.47;;
48588;SDS011;34369;51.174;6.738;2023-03-20T13:18:18;32.63;;;30.43;;
48588;SDS011;34369;51.174;6.738;2023-03-20T13:21:00;31.10;;;29.00;;
48588;SDS011;34369;51.174;6.738;2023-03-20T13:23:43;32.35;;;30.15;;
48588;SDS011;34369;51.174;6.738;2023-03-20T13:29:23;31.25;;;29.15;;
48588;SDS011;34369;51.174;6.738;2023-03-20T13:32:10;32.97;;;30.67;;
48588;SDS011;34369;51.174;6.738;2023-03-20T13:37:59;31.75;;;29.60;;
48588;SDS011;34369;51.174;6.738;2023-03-20T13:40:45;31.73;;;29.40;;
48588;SDS011;34369;51.174;6.738;2023-03-20T13:43:29;31.33;;;29.08;;
48588;SDS011;34369;51.174;6.738;2023-03-20T13:46:07;31.42;;;29.23;;
48588;SDS011;34369;51.174;6.738;2023-03-20T13:48:45;32.45;;;30.00;;
48588;SDS011;34369;51.174;6.738;2023-03-20T13:51:20;32.00;;;29.40;;
48588;SDS011;34369;51.174;6.738;2023-03-20T13:54:02;30.75;;;28.45;;
48588;SDS011;34369;51.174;6.738;2023-03-20T13:56:48;31.10;;;28.80;;
48588;SDS011;34369;51.174;6.738;2023-03-20T14:03:05;31.00;;;28.63;;
48588;SDS011;34369;51.174;6.738;2023-03-20T14:05:49;31.38;;;29.10;;
48588;SDS011;34369;51.174;6.738;2023-03-20T14:08:33;31.20;;;29.00;;
48588;SDS011;34369;51.174;6.738;2023-03-20T14:11:14;31.63;;;29.43;;
48588;SDS011;34369;51.174;6.738;2023-03-20T14:14:11;31.02;;;28.83;;
48588;SDS011;34369;51.174;6.738;2023-03-20T14:17:00;31.60;;;29.30;;
48588;SDS011;34369;51.174;6.738;2023-03-20T14:19:42;32.13;;;29.92;;
48588;SDS011;34369;51.174;6.738;2023-03-20T14:22:17;32.07;;;29.67;;
48588;SDS011;34369;51.174;6.738;2023-03-20T14:24:56;34.38;;;30.52;;
48588;SDS011;34369;51.174;6.738;2023-03-20T14:27:34;32.60;;;29.65;;
48588;SDS011;34369;51.174;6.738;2023-03-20T14:30:39;33.22;;;30.20;;
48588;SDS011;34369;51.174;6.738;2023-03-20T14:33:25;39.92;;;31.38;;
48588;SDS011;34369;51.174;6.738;2023-03-20T14:36:18;31.98;;;29.45;;
48588;SDS011;34369;51.174;6.738;2023-03-20T14:38:59;60.05;;;32.55;;
48588;SDS011;34369;51.174;6.738;2023-03-20T14:41:48;32.10;;;29.70;;
48588;SDS011;34369;51.174;6.738;2023-03-20T14:44:37;32.40;;;30.00;;
48588;SDS011;34369;51.174;6.738;2023-03-20T14:47:28;31.90;;;29.48;;
48588;SDS011;34369;51.174;6.738;2023-03-20T14:50:19;30.92;;;28.63;;
48588;SDS011;34369;51.174;6.738;2023-03-20T14:53:02;31.75;;;29.30;;
48588;SDS011;34369;51.174;6.738;2023-03-20T14:55:47;32.78;;;30.50;;
48588;SDS011;34369;51.174;6.738;2023-03-20T14:58:48;31.77;;;29.48;;
48588;SDS011;34369;51.174;6.738;2023-03-20T15:01:33;31.25;;;28.95;;
48588;SDS011;34369;51.174;6.738;2023-03-20T15:04:37;32.00;;;29.87;;
48588;SDS011;34369;51.174;6.738;2023-03-20T15:07:48;31.02;;;28.90;;
48588;SDS011;34369;51.174;6.738;2023-03-20T15:10:23;32.03;;;29.77;;
48588;SDS011;34369;51.174;6.738;2023-03-20T15:12:57;31.80;;;29.55;;
48588;SDS011;34369;51.174;6.738;2023-03-20T15:15:30;31.93;;;29.67;;
48588;SDS011;34369;51.174;6.738;2023-03-20T15:18:05;31.50;;;29.25;;
48588;SDS011;34369;51.174;6.738;2023-03-20T15:20:44;31.60;;;29.35;;
48588;SDS011;34369;51.174;6.738;2023-03-20T15:23:23;31.13;;;28.92;;
48588;SDS011;34369;51.174;6.738;2023-03-20T15:25:58;30.73;;;28.63;;
48588;SDS011;34369;51.174;6.738;2023-03-20T15:28:32;32.20;;;29.80;;
48588;SDS011;34369;51.174;6.738;2023-03-20T15:31:22;30.58;;;28.40;;
48588;SDS011;34369;51.174;6.738;2023-03-20T15:34:02;30.35;;;28.08;;
48588;SDS011;34369;51.174;6.738;2023-03-20T15:36:42;29.50;;;27.40;;
48588;SDS011;34369;51.174;6.738;2023-03-20T15:39:19;30.92;;;28.55;;
48588;SDS011;34369;51.174;6.738;2023-03-20T15:41:56;31.38;;;28.95;;
48588;SDS011;34369;51.174;6.738;2023-03-20T15:44:34;30.27;;;27.90;;
48588;SDS011;34369;51.174;6.738;2023-03-20T15:47:11;30.45;;;27.95;;
48588;SDS011;34369;51.174;6.738;2023-03-20T15:49:50;30.60;;;28.15;;
48588;SDS011;34369;51.174;6.738;2023-03-20T15:52:40;30.60;;;28.33;;
48588;SDS011;34369;51.174;6.738;2023-03-20T15:55:25;30.50;;;28.13;;
48588;SDS011;34369;51.174;6.738;2023-03-20T16:00:32;30.10;;;27.98;;